sensor_id;sensor_type;location;lat;lon;timestamp;pressure;altitude;pressure_sealevel;temperature;humidity
3102;BME280;1561;42.666;23.392;2023-07-29T00:00:26;95061.66;;;19.75;100.00
3102;BME280;1561;42.666;23.392;2023-07-29T00:02:54;95060.66;;;19.76;100.00
3102;BME280;1561;42.666;23.392;2023-07-29T00:05:25;95066.97;;;19.53;100.00
3102;BME280;1561;42.666;23.392;2023-07-29T00:07:52;95065.81;;;19.41;100.00
3102;BME280;1561;42.666;23.392;2023-07-29T00:10:19;95074.06;;;19.44;100.00
3102;BME280;1561;42.666;23.392;2023-07-29T00:12:50;95067.78;;;19.39;100.00
3102;BME280;1561;42.666;23.392;2023-07-29T00:15:19;95070.06;;;19.63;100.00
3102;BME280;1561;42.666;23.392;2023-07-29T00:17:46;95065.25;;;19.60;100.00
3102;BME280;1561;42.666;23.392;2023-07-29T00:20:14;95076.97;;;19.56;100.00
3102;BME280;1561;42.666;23.392;2023-07-29T00:22:43;95075.25;;;19.63;100.00
3102;BME280;1561;42.666;23.392;2023-07-29T00:25:10;95075.06;;;19.64;100.00
3102;BME280;1561;42.666;23.392;2023-07-29T00:27:37;95070.97;;;19.70;100.00
3102;BME280;1561;42.666;23.392;2023-07-29T00:30:07;95057.44;;;19.24;100.00
3102;BME280;1561;42.666;23.392;2023-07-29T00:32:36;95069.84;;;19.14;100.00
3102;BME280;1561;42.666;23.392;2023-07-29T00:35:05;95068.44;;;19.26;100.00
3102;BME280;1561;42.666;23.392;2023-07-29T00:37:33;95061.44;;;19.12;100.00
3102;BME280;1561;42.666;23.392;2023-07-29T00:40:03;95064.91;;;19.05;100.00
3102;BME280;1561;42.666;23.392;2023-07-29T00:42:32;95047.41;;;18.78;100.00
3102;BME280;1561;42.666;23.392;2023-07-29T00:44:59;95060.78;;;18.81;100.00
3102;BME280;1561;42.666;23.392;2023-07-29T00:47:33;95045.94;;;18.61;100.00
3102;BME280;1561;42.666;23.392;2023-07-29T00:50:03;95060.19;;;18.79;100.00
3102;BME280;1561;42.666;23.392;2023-07-29T00:52:32;95066.06;;;18.73;100.00
3102;BME280;1561;42.666;23.392;2023-07-29T00:54:59;95030.50;;;18.38;100.00
3102;BME280;1561;42.666;23.392;2023-07-29T00:57:27;95049.88;;;18.57;100.00
3102;BME280;1561;42.666;23.392;2023-07-29T00:59:58;95055.94;;;18.49;100.00
3102;BME280;1561;42.666;23.392;2023-07-29T01:02:35;95043.97;;;18.26;100.00
3102;BME280;1561;42.666;23.392;2023-07-29T01:05:06;95055.53;;;18.38;100.00
3102;BME280;1561;42.666;23.392;2023-07-29T01:07:41;95040.06;;;18.30;100.00
3102;BME280;1561;42.666;23.392;2023-07-29T01:10:19;95046.56;;;18.26;100.00
3102;BME280;1561;42.666;23.392;2023-07-29T01:12:54;95061.00;;;18.20;100.00
3102;BME280;1561;42.666;23.392;2023-07-29T01:15:31;95059.84;;;18.23;100.00
3102;BME280;1561;42.666;23.392;2023-07-29T01:18:05;95055.22;;;18.33;100.00
3102;BME280;1561;42.666;23.392;2023-07-29T01:20:37;95047.25;;;18.20;100.00
3102;BME280;1561;42.666;23.392;2023-07-29T01:23:06;95060.09;;;18.36;100.00
3102;BME280;1561;42.666;23.392;2023-07-29T01:25:37;95051.16;;;18.16;100.00
3102;BME280;1561;42.666;23.392;2023-07-29T01:28:06;95063.28;;;18.15;100.00
3102;BME280;1561;42.666;23.392;2023-07-29T01:30:39;95059.91;;;18.15;100.00
3102;BME280;1561;42.666;23.392;2023-07-29T01:33:21;95062.28;;;18.24;100.00
3102;BME280;1561;42.666;23.392;2023-07-29T01:35:58;95030.09;;;18.04;100.00
3102;BME280;1561;42.666;23.392;2023-07-29T01:38:36;95057.53;;;18.05;100.00
3102;BME280;1561;42.666;23.392;2023-07-29T01:41:08;95037.66;;;17.61;100.00
3102;BME280;1561;42.666;23.392;2023-07-29T01:43:39;95047.84;;;17.85;100.00
3102;BME280;1561;42.666;23.392;2023-07-29T01:46:12;95055.75;;;17.83;100.00
3102;BME280;1561;42.666;23.392;2023-07-29T01:48:42;95048.63;;;18.08;100.00
3102;BME280;1561;42.666;23.392;2023-07-29T01:51:12;95048.53;;;18.24;100.00
3102;BME280;1561;42.666;23.392;2023-07-29T01:53:42;95050.38;;;18.38;100.00
3102;BME280;1561;42.666;23.392;2023-07-29T01:56:11;95012.91;;;18.11;100.00
3102;BME280;1561;42.666;23.392;2023-07-29T01:58:39;95056.00;;;18.41;100.00
3102;BME280;1561;42.666;23.392;2023-07-29T02:01:08;95049.66;;;18.44;100.00
3102;BME280;1561;42.666;23.392;2023-07-29T02:03:36;95064.56;;;18.42;100.00
3102;BME280;1561;42.666;23.392;2023-07-29T02:06:04;95062.44;;;18.23;100.00
3102;BME280;1561;42.666;23.392;2023-07-29T02:08:31;95033.94;;;18.08;100.00
3102;BME280;1561;42.666;23.392;2023-07-29T02:10:59;95061.94;;;18.05;100.00
3102;BME280;1561;42.666;23.392;2023-07-29T02:13:30;95056.88;;;18.11;100.00
3102;BME280;1561;42.666;23.392;2023-07-29T02:16:01;94955.03;;;17.22;100.00
3102;BME280;1561;42.666;23.392;2023-07-29T02:18:29;95065.63;;;17.80;100.00
3102;BME280;1561;42.666;23.392;2023-07-29T02:20:56;95058.25;;;17.69;100.00
3102;BME280;1561;42.666;23.392;2023-07-29T02:23:23;95065.34;;;17.75;100.00
3102;BME280;1561;42.666;23.392;2023-07-29T02:25:52;95070.09;;;17.63;100.00
3102;BME280;1561;42.666;23.392;2023-07-29T02:28:21;95071.16;;;17.46;100.00
3102;BME280;1561;42.666;23.392;2023-07-29T02:31:09;95072.03;;;17.61;100.00
3102;BME280;1561;42.666;23.392;2023-07-29T02:33:37;95054.50;;;17.49;100.00
3102;BME280;1561;42.666;23.392;2023-07-29T02:36:04;95064.69;;;17.73;100.00
3102;BME280;1561;42.666;23.392;2023-07-29T02:38:32;95043.00;;;17.59;100.00
3102;BME280;1561;42.666;23.392;2023-07-29T02:40:59;95069.75;;;17.66;100.00
3102;BME280;1561;42.666;23.392;2023-07-29T02:43:27;95049.50;;;17.47;100.00
3102;BME280;1561;42.666;23.392;2023-07-29T02:45:56;95064.78;;;17.65;100.00
3102;BME280;1561;42.666;23.392;2023-07-29T02:48:25;95068.41;;;17.48;100.00
3102;BME280;1561;42.666;23.392;2023-07-29T02:50:54;95060.00;;;17.46;100.00
3102;BME280;1561;42.666;23.392;2023-07-29T02:53:23;95065.97;;;17.46;100.00
3102;BME280;1561;42.666;23.392;2023-07-29T02:55:52;95062.72;;;17.52;100.00
3102;BME280;1561;42.666;23.392;2023-07-29T02:58:23;95069.38;;;17.39;100.00
3102;BME280;1561;42.666;23.392;2023-07-29T03:00:53;95069.22;;;17.40;100.00
3102;BME280;1561;42.666;23.392;2023-07-29T03:03:23;95037.91;;;17.43;100.00
3102;BME280;1561;42.666;23.392;2023-07-29T03:05:57;95038.91;;;17.26;100.00
3102;BME280;1561;42.666;23.392;2023-07-29T03:08:32;95075.84;;;17.43;100.00
3102;BME280;1561;42.666;23.392;2023-07-29T03:11:06;95080.53;;;17.31;100.00
3102;BME280;1561;42.666;23.392;2023-07-29T03:13:36;95087.16;;;17.34;100.00
3102;BME280;1561;42.666;23.392;2023-07-29T03:16:07;95095.28;;;17.61;100.00
3102;BME280;1561;42.666;23.392;2023-07-29T03:18:38;95094.72;;;17.43;100.00
3102;BME280;1561;42.666;23.392;2023-07-29T03:21:06;95099.53;;;17.54;100.00
3102;BME280;1561;42.666;23.392;2023-07-29T03:23:44;95093.72;;;17.52;100.00
3102;BME280;1561;42.666;23.392;2023-07-29T03:26:16;95091.81;;;17.38;100.00
3102;BME280;1561;42.666;23.392;2023-07-29T03:28:45;95085.13;;;17.13;100.00
3102;BME280;1561;42.666;23.392;2023-07-29T03:31:12;95043.31;;;17.18;100.00
3102;BME280;1561;42.666;23.392;2023-07-29T03:33:42;95081.31;;;17.48;100.00
3102;BME280;1561;42.666;23.392;2023-07-29T03:36:09;95081.91;;;18.11;100.00
3102;BME280;1561;42.666;23.392;2023-07-29T03:38:38;95080.78;;;18.36;100.00
3102;BME280;1561;42.666;23.392;2023-07-29T03:41:06;95075.63;;;18.87;100.00
3102;BME280;1561;42.666;23.392;2023-07-29T03:43:34;95092.28;;;19.51;100.00
3102;BME280;1561;42.666;23.392;2023-07-29T03:46:03;95087.72;;;19.38;100.00
3102;BME280;1561;42.666;23.392;2023-07-29T03:48:32;95082.50;;;19.53;100.00
3102;BME280;1561;42.666;23.392;2023-07-29T03:51:01;95086.09;;;19.37;100.00
3102;BME280;1561;42.666;23.392;2023-07-29T03:53:28;95088.28;;;19.69;100.00
3102;BME280;1561;42.666;23.392;2023-07-29T03:56:00;95063.81;;;20.28;100.00
3102;BME280;1561;42.666;23.392;2023-07-29T03:58:28;95084.75;;;20.75;100.00
3102;BME280;1561;42.666;23.392;2023-07-29T04:00:56;95034.53;;;20.13;100.00
3102;BME280;1561;42.666;23.392;2023-07-29T04:03:23;95068.19;;;20.28;100.00
3102;BME280;1561;42.666;23.392;2023-07-29T04:05:55;95085.03;;;20.59;100.00
3102;BME280;1561;42.666;23.392;2023-07-29T04:08:27;95079.69;;;21.56;100.00
3102;BME280;1561;42.666;23.392;2023-07-29T04:10:55;95087.09;;;22.06;100.00
3102;BME280;1561;42.666;23.392;2023-07-29T04:13:26;95090.06;;;22.03;100.00
3102;BME280;1561;42.666;23.392;2023-07-29T04:15:56;95092.22;;;21.80;100.00
3102;BME280;1561;42.666;23.392;2023-07-29T04:18:25;95098.09;;;21.55;100.00
3102;BME280;1561;42.666;23.392;2023-07-29T04:20:53;95091.94;;;21.28;100.00
3102;BME280;1561;42.666;23.392;2023-07-29T04:23:21;95093.34;;;21.31;100.00
3102;BME280;1561;42.666;23.392;2023-07-29T04:25:50;95096.81;;;22.58;100.00
3102;BME280;1561;42.666;23.392;2023-07-29T04:28:20;95083.94;;;23.15;95.47
3102;BME280;1561;42.666;23.392;2023-07-29T04:30:48;95078.72;;;23.98;89.17
3102;BME280;1561;42.666;23.392;2023-07-29T04:33:19;95079.88;;;22.15;100.00
3102;BME280;1561;42.666;23.392;2023-07-29T04:35:52;94997.06;;;22.51;96.78
3102;BME280;1561;42.666;23.392;2023-07-29T04:38:24;95087.19;;;22.97;97.70
3102;BME280;1561;42.666;23.392;2023-07-29T04:40:55;95088.59;;;22.93;97.06
3102;BME280;1561;42.666;23.392;2023-07-29T04:43:27;95085.63;;;24.48;84.31
3102;BME280;1561;42.666;23.392;2023-07-29T04:45:58;95057.97;;;24.10;81.73
3102;BME280;1561;42.666;23.392;2023-07-29T04:48:29;95085.69;;;25.15;78.54
3102;BME280;1561;42.666;23.392;2023-07-29T04:51:00;95089.50;;;24.95;76.96
3102;BME280;1561;42.666;23.392;2023-07-29T04:53:30;94855.44;;;22.65;83.23
3102;BME280;1561;42.666;23.392;2023-07-29T04:56:00;95098.00;;;24.66;79.28
3102;BME280;1561;42.666;23.392;2023-07-29T04:58:36;95099.28;;;24.19;84.40
3102;BME280;1561;42.666;23.392;2023-07-29T05:01:08;95098.72;;;24.42;80.55
3102;BME280;1561;42.666;23.392;2023-07-29T05:03:39;95113.03;;;25.19;75.39
3102;BME280;1561;42.666;23.392;2023-07-29T05:06:07;95033.16;;;25.77;69.59
3102;BME280;1561;42.666;23.392;2023-07-29T05:08:43;95105.91;;;25.69;69.69
3102;BME280;1561;42.666;23.392;2023-07-29T05:11:13;95109.63;;;25.19;71.91
3102;BME280;1561;42.666;23.392;2023-07-29T05:13:40;95107.44;;;25.58;70.59
3102;BME280;1561;42.666;23.392;2023-07-29T05:16:19;95095.66;;;25.31;69.93
3102;BME280;1561;42.666;23.392;2023-07-29T05:18:46;95104.81;;;26.83;63.55
3102;BME280;1561;42.666;23.392;2023-07-29T05:21:13;95101.41;;;26.94;63.13
3102;BME280;1561;42.666;23.392;2023-07-29T05:23:43;95102.69;;;27.60;56.57
3102;BME280;1561;42.666;23.392;2023-07-29T05:26:15;95105.16;;;27.78;57.41
3102;BME280;1561;42.666;23.392;2023-07-29T05:28:48;95106.09;;;28.51;54.31
3102;BME280;1561;42.666;23.392;2023-07-29T05:31:17;95112.28;;;29.40;50.67
3102;BME280;1561;42.666;23.392;2023-07-29T05:33:48;95120.88;;;28.01;53.60
3102;BME280;1561;42.666;23.392;2023-07-29T05:36:16;95101.34;;;27.23;57.31
3102;BME280;1561;42.666;23.392;2023-07-29T05:38:44;95110.59;;;28.11;53.71
3102;BME280;1561;42.666;23.392;2023-07-29T05:41:11;95121.69;;;25.62;65.62
3102;BME280;1561;42.666;23.392;2023-07-29T05:43:40;95120.63;;;26.65;62.96
3102;BME280;1561;42.666;23.392;2023-07-29T05:46:09;95112.00;;;26.46;63.85
3102;BME280;1561;42.666;23.392;2023-07-29T05:48:37;95119.59;;;27.30;60.54
3102;BME280;1561;42.666;23.392;2023-07-29T05:51:08;95109.03;;;27.76;59.27
3102;BME280;1561;42.666;23.392;2023-07-29T05:53:40;95124.09;;;28.03;56.57
3102;BME280;1561;42.666;23.392;2023-07-29T05:56:09;95120.34;;;28.83;53.57
3102;BME280;1561;42.666;23.392;2023-07-29T05:58:39;95103.13;;;27.69;56.04
3102;BME280;1561;42.666;23.392;2023-07-29T06:01:06;95116.28;;;27.80;57.69
3102;BME280;1561;42.666;23.392;2023-07-29T06:03:37;95114.25;;;28.83;53.67
3102;BME280;1561;42.666;23.392;2023-07-29T06:06:14;95101.25;;;28.60;52.87
3102;BME280;1561;42.666;23.392;2023-07-29T06:08:45;95111.66;;;28.99;50.48
3102;BME280;1561;42.666;23.392;2023-07-29T06:11:13;95118.16;;;28.80;51.85
3102;BME280;1561;42.666;23.392;2023-07-29T06:13:47;95104.69;;;28.60;53.06
3102;BME280;1561;42.666;23.392;2023-07-29T06:16:15;95016.66;;;28.63;51.05
3102;BME280;1561;42.666;23.392;2023-07-29T06:18:42;95079.25;;;29.49;49.14
3102;BME280;1561;42.666;23.392;2023-07-29T06:21:09;95114.75;;;28.96;50.27
3102;BME280;1561;42.666;23.392;2023-07-29T06:23:42;95107.09;;;30.04;48.10
3102;BME280;1561;42.666;23.392;2023-07-29T06:26:09;95100.69;;;31.69;43.24
3102;BME280;1561;42.666;23.392;2023-07-29T06:28:37;95102.50;;;30.38;45.35
3102;BME280;1561;42.666;23.392;2023-07-29T06:31:07;95107.16;;;30.31;46.27
3102;BME280;1561;42.666;23.392;2023-07-29T06:33:36;95106.03;;;29.84;46.33
3102;BME280;1561;42.666;23.392;2023-07-29T06:36:04;95098.19;;;30.53;45.46
3102;BME280;1561;42.666;23.392;2023-07-29T06:38:34;95090.44;;;32.49;42.06
3102;BME280;1561;42.666;23.392;2023-07-29T06:41:02;95078.81;;;30.69;43.96
3102;BME280;1561;42.666;23.392;2023-07-29T06:43:29;95088.63;;;30.74;44.46
3102;BME280;1561;42.666;23.392;2023-07-29T06:45:56;95084.47;;;31.56;43.17
3102;BME280;1561;42.666;23.392;2023-07-29T06:48:25;95082.88;;;32.01;42.03
3102;BME280;1561;42.666;23.392;2023-07-29T06:50:54;94988.28;;;31.47;42.00
3102;BME280;1561;42.666;23.392;2023-07-29T06:53:28;94981.00;;;30.76;42.88
3102;BME280;1561;42.666;23.392;2023-07-29T06:55:56;95079.31;;;30.66;44.07
3102;BME280;1561;42.666;23.392;2023-07-29T06:58:28;95073.34;;;32.00;42.87
3102;BME280;1561;42.666;23.392;2023-07-29T07:00:55;94981.13;;;31.32;41.89
3102;BME280;1561;42.666;23.392;2023-07-29T07:03:29;95069.25;;;30.63;44.87
3102;BME280;1561;42.666;23.392;2023-07-29T07:05:57;95085.75;;;30.06;47.31
3102;BME280;1561;42.666;23.392;2023-07-29T07:08:24;95082.44;;;30.90;45.88
3102;BME280;1561;42.666;23.392;2023-07-29T07:10:52;95082.03;;;32.92;42.00
3102;BME280;1561;42.666;23.392;2023-07-29T07:13:22;95078.84;;;31.79;42.93
3102;BME280;1561;42.666;23.392;2023-07-29T07:16:08;95064.75;;;32.40;42.50
3102;BME280;1561;42.666;23.392;2023-07-29T07:18:38;95086.63;;;29.90;45.18
3102;BME280;1561;42.666;23.392;2023-07-29T07:21:05;95063.66;;;29.85;45.67
3102;BME280;1561;42.666;23.392;2023-07-29T07:23:34;95081.69;;;32.34;41.40
3102;BME280;1561;42.666;23.392;2023-07-29T07:26:12;95078.34;;;32.88;40.20
3102;BME280;1561;42.666;23.392;2023-07-29T07:28:41;95074.34;;;33.06;39.97
3102;BME280;1561;42.666;23.392;2023-07-29T07:31:09;95075.84;;;33.82;38.39
3102;BME280;1561;42.666;23.392;2023-07-29T07:33:38;95075.53;;;34.47;37.85
3102;BME280;1561;42.666;23.392;2023-07-29T07:36:08;95055.75;;;31.64;41.08
3102;BME280;1561;42.666;23.392;2023-07-29T07:38:34;95073.03;;;33.33;39.25
3102;BME280;1561;42.666;23.392;2023-07-29T07:41:08;95062.47;;;32.83;40.22
3102;BME280;1561;42.666;23.392;2023-07-29T07:43:45;95060.31;;;32.55;39.80
3102;BME280;1561;42.666;23.392;2023-07-29T07:46:12;95065.63;;;31.32;41.25
3102;BME280;1561;42.666;23.392;2023-07-29T07:48:41;95053.16;;;32.51;40.15
3102;BME280;1561;42.666;23.392;2023-07-29T07:51:11;95069.03;;;33.41;38.92
3102;BME280;1561;42.666;23.392;2023-07-29T07:53:39;95067.72;;;33.23;38.44
3102;BME280;1561;42.666;23.392;2023-07-29T07:56:09;95055.28;;;32.84;38.78
3102;BME280;1561;42.666;23.392;2023-07-29T07:58:36;95066.06;;;34.79;36.51
3102;BME280;1561;42.666;23.392;2023-07-29T08:01:03;95062.63;;;35.88;34.82
3102;BME280;1561;42.666;23.392;2023-07-29T08:03:31;95065.00;;;34.75;36.39
3102;BME280;1561;42.666;23.392;2023-07-29T08:06:04;95078.50;;;33.72;37.40
3102;BME280;1561;42.666;23.392;2023-07-29T08:08:32;95067.66;;;35.66;35.39
3102;BME280;1561;42.666;23.392;2023-07-29T08:11:00;95057.91;;;36.27;34.43
3102;BME280;1561;42.666;23.392;2023-07-29T08:13:27;95062.94;;;35.06;35.44
3102;BME280;1561;42.666;23.392;2023-07-29T08:15:56;95047.88;;;35.54;34.26
3102;BME280;1561;42.666;23.392;2023-07-29T08:18:31;95064.66;;;34.48;35.37
3102;BME280;1561;42.666;23.392;2023-07-29T08:21:00;95052.38;;;32.80;37.58
3102;BME280;1561;42.666;23.392;2023-07-29T08:23:35;95054.84;;;34.49;35.96
3102;BME280;1561;42.666;23.392;2023-07-29T08:26:05;95072.88;;;34.47;35.39
3102;BME280;1561;42.666;23.392;2023-07-29T08:28:33;95012.72;;;33.84;35.44
3102;BME280;1561;42.666;23.392;2023-07-29T08:31:02;95059.06;;;35.27;35.44
3102;BME280;1561;42.666;23.392;2023-07-29T08:33:34;95060.91;;;36.02;33.76
3102;BME280;1561;42.666;23.392;2023-07-29T08:36:04;95051.56;;;36.05;33.36
3102;BME280;1561;42.666;23.392;2023-07-29T08:38:35;95048.72;;;36.75;32.33
3102;BME280;1561;42.666;23.392;2023-07-29T08:41:13;95027.16;;;33.53;35.25
3102;BME280;1561;42.666;23.392;2023-07-29T08:43:46;95005.13;;;31.87;36.59
3102;BME280;1561;42.666;23.392;2023-07-29T08:46:19;95056.66;;;34.05;35.08
3102;BME280;1561;42.666;23.392;2023-07-29T08:48:48;95037.97;;;35.59;32.78
3102;BME280;1561;42.666;23.392;2023-07-29T08:51:21;95046.28;;;35.53;32.57
3102;BME280;1561;42.666;23.392;2023-07-29T08:53:56;95049.91;;;34.22;33.91
3102;BME280;1561;42.666;23.392;2023-07-29T08:56:34;95041.75;;;34.14;33.82
3102;BME280;1561;42.666;23.392;2023-07-29T08:59:04;94951.28;;;34.88;32.65
3102;BME280;1561;42.666;23.392;2023-07-29T09:01:47;95032.66;;;35.59;31.92
3102;BME280;1561;42.666;23.392;2023-07-29T09:04:16;95036.22;;;34.54;32.94
3102;BME280;1561;42.666;23.392;2023-07-29T09:06:45;95013.72;;;35.89;31.21
3102;BME280;1561;42.666;23.392;2023-07-29T09:09:24;95034.91;;;34.90;31.41
3102;BME280;1561;42.666;23.392;2023-07-29T09:11:52;95031.72;;;34.06;32.51
3102;BME280;1561;42.666;23.392;2023-07-29T09:14:24;95016.84;;;35.68;31.15
3102;BME280;1561;42.666;23.392;2023-07-29T09:16:53;95002.44;;;36.16;29.46
3102;BME280;1561;42.666;23.392;2023-07-29T09:19:32;95028.97;;;35.32;30.63
3102;BME280;1561;42.666;23.392;2023-07-29T09:22:00;95025.69;;;34.77;31.10
3102;BME280;1561;42.666;23.392;2023-07-29T09:24:33;95008.88;;;35.68;30.79
3102;BME280;1561;42.666;23.392;2023-07-29T09:27:00;95011.69;;;34.33;32.70
3102;BME280;1561;42.666;23.392;2023-07-29T09:29:28;94983.50;;;35.80;30.49
3102;BME280;1561;42.666;23.392;2023-07-29T09:32:17;94998.41;;;36.18;29.78
3102;BME280;1561;42.666;23.392;2023-07-29T09:34:47;95001.53;;;37.26;28.67
3102;BME280;1561;42.666;23.392;2023-07-29T09:37:21;95005.81;;;36.03;29.66
3102;BME280;1561;42.666;23.392;2023-07-29T09:39:55;94999.34;;;36.64;28.59
3102;BME280;1561;42.666;23.392;2023-07-29T09:42:23;95003.69;;;35.81;28.79
3102;BME280;1561;42.666;23.392;2023-07-29T09:44:53;94999.88;;;35.64;29.35
3102;BME280;1561;42.666;23.392;2023-07-29T09:47:21;94975.00;;;37.03;27.55
3102;BME280;1561;42.666;23.392;2023-07-29T09:49:49;94950.69;;;36.77;26.95
3102;BME280;1561;42.666;23.392;2023-07-29T09:52:19;94919.81;;;36.26;27.91
3102;BME280;1561;42.666;23.392;2023-07-29T09:54:47;94993.78;;;35.63;28.96
3102;BME280;1561;42.666;23.392;2023-07-29T09:57:18;94988.88;;;37.32;27.51
3102;BME280;1561;42.666;23.392;2023-07-29T09:59:54;94979.22;;;35.37;29.74
3102;BME280;1561;42.666;23.392;2023-07-29T10:02:24;94982.75;;;37.31;28.18
3102;BME280;1561;42.666;23.392;2023-07-29T10:04:55;94986.72;;;35.77;29.05
3102;BME280;1561;42.666;23.392;2023-07-29T10:07:23;94990.25;;;35.91;28.81
3102;BME280;1561;42.666;23.392;2023-07-29T10:09:58;94986.34;;;35.13;30.15
3102;BME280;1561;42.666;23.392;2023-07-29T10:12:29;94978.97;;;34.82;30.03
3102;BME280;1561;42.666;23.392;2023-07-29T10:15:00;94970.69;;;34.49;30.69
3102;BME280;1561;42.666;23.392;2023-07-29T10:17:30;94971.78;;;35.81;29.09
3102;BME280;1561;42.666;23.392;2023-07-29T10:19:57;94954.31;;;37.40;27.97
3102;BME280;1561;42.666;23.392;2023-07-29T10:22:25;94962.88;;;36.09;28.63
3102;BME280;1561;42.666;23.392;2023-07-29T10:25:04;94962.72;;;36.56;28.25
3102;BME280;1561;42.666;23.392;2023-07-29T10:27:42;94963.16;;;36.08;28.46
3102;BME280;1561;42.666;23.392;2023-07-29T10:30:11;94938.34;;;35.75;29.13
3102;BME280;1561;42.666;23.392;2023-07-29T10:32:45;94950.13;;;34.65;30.39
3102;BME280;1561;42.666;23.392;2023-07-29T10:35:20;94937.38;;;36.59;28.48
3102;BME280;1561;42.666;23.392;2023-07-29T10:37:49;94935.56;;;36.22;28.62
3102;BME280;1561;42.666;23.392;2023-07-29T10:40:47;94928.94;;;35.41;29.32
3102;BME280;1561;42.666;23.392;2023-07-29T10:43:35;94929.56;;;36.81;27.79
3102;BME280;1561;42.666;23.392;2023-07-29T10:46:16;94931.72;;;35.73;28.75
3102;BME280;1561;42.666;23.392;2023-07-29T10:48:53;94924.72;;;34.88;29.40
3102;BME280;1561;42.666;23.392;2023-07-29T10:51:23;94918.69;;;35.53;28.70
3102;BME280;1561;42.666;23.392;2023-07-29T10:53:56;94925.44;;;35.45;29.23
3102;BME280;1561;42.666;23.392;2023-07-29T10:56:30;94919.44;;;35.58;28.42
3102;BME280;1561;42.666;23.392;2023-07-29T10:59:33;94916.00;;;35.95;28.16
3102;BME280;1561;42.666;23.392;2023-07-29T11:02:01;94915.53;;;34.75;28.68
3102;BME280;1561;42.666;23.392;2023-07-29T11:04:30;94916.09;;;35.01;29.02
3102;BME280;1561;42.666;23.392;2023-07-29T11:07:24;94913.72;;;34.99;28.01
3102;BME280;1561;42.666;23.392;2023-07-29T11:10:02;94923.53;;;33.54;29.68
3102;BME280;1561;42.666;23.392;2023-07-29T11:13:04;94908.00;;;34.58;28.94
3102;BME280;1561;42.666;23.392;2023-07-29T11:15:42;94892.53;;;34.94;28.63
3102;BME280;1561;42.666;23.392;2023-07-29T11:18:14;94902.94;;;34.28;29.20
3102;BME280;1561;42.666;23.392;2023-07-29T11:20:42;94878.72;;;35.16;28.94
3102;BME280;1561;42.666;23.392;2023-07-29T11:23:13;94899.50;;;35.37;28.70
3102;BME280;1561;42.666;23.392;2023-07-29T11:25:46;94898.56;;;36.39;27.55
3102;BME280;1561;42.666;23.392;2023-07-29T11:28:19;94904.66;;;34.71;29.38
3102;BME280;1561;42.666;23.392;2023-07-29T11:30:52;94893.75;;;35.25;28.58
3102;BME280;1561;42.666;23.392;2023-07-29T11:33:21;94908.28;;;33.26;29.48
3102;BME280;1561;42.666;23.392;2023-07-29T11:35:50;94900.53;;;34.32;29.32
3102;BME280;1561;42.666;23.392;2023-07-29T11:38:23;94899.78;;;33.88;29.18
3102;BME280;1561;42.666;23.392;2023-07-29T11:40:58;94902.19;;;33.26;29.06
3102;BME280;1561;42.666;23.392;2023-07-29T11:43:27;94896.91;;;33.79;29.86
3102;BME280;1561;42.666;23.392;2023-07-29T11:45:58;94896.53;;;32.29;31.06
3102;BME280;1561;42.666;23.392;2023-07-29T11:48:28;94883.19;;;33.67;30.51
3102;BME280;1561;42.666;23.392;2023-07-29T11:50:57;94880.78;;;34.09;29.70
3102;BME280;1561;42.666;23.392;2023-07-29T11:53:27;94858.06;;;33.60;30.44
3102;BME280;1561;42.666;23.392;2023-07-29T11:55:57;94890.31;;;33.13;30.53
3102;BME280;1561;42.666;23.392;2023-07-29T11:58:27;94871.69;;;32.05;31.16
3102;BME280;1561;42.666;23.392;2023-07-29T12:01:00;94864.34;;;33.15;30.06
3102;BME280;1561;42.666;23.392;2023-07-29T12:03:28;94871.19;;;34.75;28.72
3102;BME280;1561;42.666;23.392;2023-07-29T12:06:05;94842.88;;;34.09;29.48
3102;BME280;1561;42.666;23.392;2023-07-29T12:08:33;94857.34;;;33.88;29.98
3102;BME280;1561;42.666;23.392;2023-07-29T12:11:02;94859.25;;;34.16;29.78
3102;BME280;1561;42.666;23.392;2023-07-29T12:13:32;94847.91;;;34.10;29.67
3102;BME280;1561;42.666;23.392;2023-07-29T12:16:07;94857.16;;;34.13;29.84
3102;BME280;1561;42.666;23.392;2023-07-29T12:18:35;94851.81;;;34.18;29.50
3102;BME280;1561;42.666;23.392;2023-07-29T12:21:03;94853.13;;;34.20;29.38
3102;BME280;1561;42.666;23.392;2023-07-29T12:23:33;94857.78;;;33.61;29.41
3102;BME280;1561;42.666;23.392;2023-07-29T12:26:02;94848.59;;;33.92;29.16
3102;BME280;1561;42.666;23.392;2023-07-29T12:28:32;94851.03;;;32.42;30.49
3102;BME280;1561;42.666;23.392;2023-07-29T12:30:59;94846.81;;;33.24;29.61
3102;BME280;1561;42.666;23.392;2023-07-29T12:33:33;94848.91;;;33.76;29.35
3102;BME280;1561;42.666;23.392;2023-07-29T12:36:00;94838.25;;;33.91;28.75
3102;BME280;1561;42.666;23.392;2023-07-29T12:38:28;94824.38;;;34.84;28.15
3102;BME280;1561;42.666;23.392;2023-07-29T12:40:55;94845.53;;;33.17;29.52
3102;BME280;1561;42.666;23.392;2023-07-29T12:43:23;94830.28;;;34.24;28.80
3102;BME280;1561;42.666;23.392;2023-07-29T12:45:52;94834.31;;;34.97;27.92
3102;BME280;1561;42.666;23.392;2023-07-29T12:48:21;94835.91;;;34.75;28.55
3102;BME280;1561;42.666;23.392;2023-07-29T12:50:57;94817.31;;;34.51;28.18
3102;BME280;1561;42.666;23.392;2023-07-29T12:53:24;94831.13;;;34.72;28.13
3102;BME280;1561;42.666;23.392;2023-07-29T12:55:52;94823.19;;;34.72;28.58
3102;BME280;1561;42.666;23.392;2023-07-29T12:58:28;94821.22;;;35.25;27.94
3102;BME280;1561;42.666;23.392;2023-07-29T13:00:55;94824.13;;;35.65;27.20
3102;BME280;1561;42.666;23.392;2023-07-29T13:03:24;94830.22;;;34.87;28.08
3102;BME280;1561;42.666;23.392;2023-07-29T13:05:54;94822.50;;;34.61;28.33
3102;BME280;1561;42.666;23.392;2023-07-29T13:08:23;94812.03;;;35.17;28.06
3102;BME280;1561;42.666;23.392;2023-07-29T13:10:51;94820.03;;;34.93;27.03
3102;BME280;1561;42.666;23.392;2023-07-29T13:13:20;94833.28;;;34.46;27.35
3102;BME280;1561;42.666;23.392;2023-07-29T13:15:51;94829.19;;;35.06;27.15
3102;BME280;1561;42.666;23.392;2023-07-29T13:18:20;94816.19;;;35.28;26.98
3102;BME280;1561;42.666;23.392;2023-07-29T13:20:50;94825.25;;;34.51;26.91
3102;BME280;1561;42.666;23.392;2023-07-29T13:23:21;94830.44;;;33.66;28.57
3102;BME280;1561;42.666;23.392;2023-07-29T13:25:49;94827.78;;;33.66;28.51